This is the latest recevied weather packets stored in our database for station/object WMKK. If no packets are shown the sender has not sent any weather packets the latest 10 day(s).
| Time | Temp. | Humidity | Pressure | Rain* | Wind** | Luminosity | Snow |
|---|---|---|---|---|---|---|---|
| 1777518608 | 31.67° C | 66% | 1010 hPa | - | - | - | - |
| 1777516791 | 31.67° C | 66% | 1010 hPa | - | - | - | - |
| 1777515008 | 30.56° C | 70% | 1009 hPa | - | - | - | - |
| 1777513191 | 30° C | 79% | 1009 hPa | - | - | - | - |
| 1777511409 | 28.89° C | 83% | 1009 hPa | - | - | - | - |
| 1777509590 | 27.78° C | 88% | 1009 hPa | - | - | - | - |
| 1777507822 | 26.67° C | 88% | 1009 hPa | - | - | - | - |
| 1777505990 | 25.56° C | 94% | 1008 hPa | - | - | - | - |
| 1777504208 | 25.56° C | 94% | 1008 hPa | - | - | - | - |
| 1777502390 | 25.56° C | 94% | 1008 hPa | - | - | - | - |
| 1777500608 | 26.67° C | 88% | 1008 hPa | - | - | - | - |
| 1777498790 | 26.67° C | 88% | 1008 hPa | - | - | - | - |
| 1777497012 | 26.67° C | 88% | 1008 hPa | - | - | - | - |
| 1777495187 | 26.67° C | 88% | 1008 hPa | - | - | - | - |
| 1777493420 | 26.67° C | 88% | 1008 hPa | - | - | - | - |
| 1777491592 | 25.56° C | 94% | 1008 hPa | - | - | - | - |
| 1777489808 | 25.56° C | 94% | 1009 hPa | - | - | - | - |
| 1777487990 | 26.67° C | 88% | 1009 hPa | - | - | - | - |
| 1777486208 | 26.67° C | 88% | 1009 hPa | - | - | - | - |
| 1777484390 | 26.67° C | 94% | 1009 hPa | - | - | - | - |
| 1777482608 | 26.67° C | 94% | 1009 hPa | - | - | - | - |
| 1777480790 | 26.67° C | 94% | 1009 hPa | - | - | - | - |
| 1777479011 | 26.67° C | 94% | 1009 hPa | - | - | - | - |
| 1777477190 | 27.78° C | 83% | 1009 hPa | - | - | - | - |
| 1777475416 | 26.67° C | 94% | 1009 hPa | - | - | - | - |
* Rain since midnight (hover to see other rain measurements)
** Current wind speed in m/s (hover to see current wind gust speed)